This is the latest recevied weather packets stored in our database for station/object IZ1BLA-10. If no packets are shown the sender has not sent any weather packets the latest 10 day(s).
| Time | Temp. | Humidity | Pressure | Rain* | Wind** | Luminosity | Snow |
|---|---|---|---|---|---|---|---|
| 1777364939 | 18.33° C | 63% | 1014.6 hPa | - | - | - | - |
| 1777364338 | 17.78° C | 66% | 1014.6 hPa | - | - | - | - |
| 1777363738 | 17.78° C | 66% | 1014.7 hPa | - | - | - | - |
| 1777363138 | 18.33° C | 62% | 1014.5 hPa | - | - | - | - |
| 1777362538 | 18.33° C | 61% | 1014.5 hPa | - | - | - | - |
| 1777361938 | 18.33° C | 61% | 1014.5 hPa | - | - | - | - |
| 1777361338 | 17.78° C | 63% | 1014.8 hPa | - | - | - | - |
| 1777360738 | 17.78° C | 60% | 1014.8 hPa | - | - | - | - |
| 1777360138 | 17.22° C | 56% | 1014.9 hPa | - | - | - | - |
| 1777359538 | 16.11° C | 59% | 1015.2 hPa | - | - | - | - |
| 1777358938 | 16.67° C | 57% | 1014.9 hPa | - | - | - | - |
| 1777358338 | 16.67° C | 56% | 1014.8 hPa | - | - | - | - |
| 1777357737 | 15.56° C | 60% | 1015.2 hPa | - | - | - | - |
| 1777357138 | 15° C | 61% | 1015.3 hPa | - | - | - | - |
| 1777356538 | 15.56° C | 60% | 1015 hPa | - | - | - | - |
| 1777355937 | 16.11° C | 55% | 1014.7 hPa | - | - | - | - |
| 1777355338 | 15° C | 59% | 1015 hPa | - | - | - | - |
| 1777354738 | 13.89° C | 62% | 1015.1 hPa | - | - | - | - |
| 1777354138 | 15° C | 59% | 1014.8 hPa | - | - | - | - |
| 1777353538 | 14.44° C | 61% | 1014.9 hPa | - | - | - | - |
| 1777352938 | 14.44° C | 61% | 1014.7 hPa | - | - | - | - |
| 1777352338 | 14.44° C | 63% | 1014.8 hPa | - | - | - | - |
| 1777351738 | 13.33° C | 66% | 1014.9 hPa | - | - | - | - |
| 1777351138 | 13.33° C | 65% | 1014.8 hPa | - | - | - | - |
| 1777350537 | 13.89° C | 62% | 1014.6 hPa | - | - | - | - |
* Rain since midnight (hover to see other rain measurements)
** Current wind speed in m/s (hover to see current wind gust speed)